Lavaca Bay — WDF2105 — position and weather

sailwx.info

Track history (hours):
 
Tides and Currents Weather Stations Pressure Air Temp Water Temp Dewpoint Dewpoint Depression Visibility Wind Speed Wind Dir Waves Ship Positions

Lavaca Bay

Owner: Higman Barge Lines, Inc, Orange, TX. More information available from US FCC via Universal Licensing System and Coast Guard Vessel Documentation Center.

Last reported at 2017-Aug-16 23:00 UTC. Time now 2017-Aug-16 23:22 UTC.
Position N 29°57' W 093°10'.

Length 24 m; draft 3 m.

Type: Towing. MMSI: 367424940.

Date/timePositionNaut miles runAvg speedWind from/ knotsBaromVisibWave heightAir tempDewpointWater temp
2017-Aug-16 23:00N 29°57' W 093°10'3 5.3
2017-Aug-16 22:30N 29°59' W 093°12'2 4.7
2017-Aug-16 22:00N 30°01' W 093°14'2 4.5
2017-Aug-16 21:30N 30°02' W 093°15'2 3.5
2017-Aug-16 21:00N 30°04' W 093°16'2 3.7
2017-Aug-16 20:30N 30°05' W 093°18'1 2.5
2017-Aug-16 20:00N 30°06' W 093°19'3 5.4
2017-Aug-16 19:30N 30°04' W 093°21'2 4.6
2017-Aug-16 19:00N 30°04' W 093°23'3 5.5
2017-Aug-16 18:30N 30°04' W 093°27'3 5.5
2017-Aug-16 18:00N 30°04' W 093°30'3 5.5
2017-Aug-16 17:30N 30°04' W 093°33'3 5.6
2017-Aug-16 17:00N 30°04' W 093°36'3 5.9
2017-Aug-16 16:30N 30°04' W 093°40'71 4.9
2017-Aug-16 02:01N 29°29' W 094°52'1 7.7
2017-Aug-16 01:53N 29°30' W 094°52'3 7.6
2017-Aug-16 01:30N 29°32' W 094°54'4 7.4
2017-Aug-16 01:00N 29°35' W 094°56'4 7.6
2017-Aug-16 00:30N 29°38' W 094°58'4 7.6
2017-Aug-16 00:00N 29°42' W 094°60'3 6.0
2017-Aug-15 23:29N 29°44' W 095°03'3 5.5
2017-Aug-15 22:58N 29°46' W 095°05'1 0.0
2017-Aug-15 10:18N 29°45' W 095°06'1 3.2
2017-Aug-15 10:00N 29°45' W 095°06'3 5.2
2017-Aug-15 09:26N 29°45' W 095°10'3 4.3
2017-Aug-15 08:40N 29°44' W 095°13'1 0.1
2017-Aug-14 08:52N 29°43' W 095°15'3 4.6
2017-Aug-14 08:14N 29°45' W 095°12'1 5.9
2017-Aug-14 08:00N 29°45' W 095°10'3 0.1
2017-Aug-13 07:47N 29°46' W 095°06'0 0.6
2017-Aug-13 07:18N 29°46' W 095°07'1 3.0
2017-Aug-13 06:59N 29°46' W 095°06'3 5.6
2017-Aug-13 06:30N 29°44' W 095°03'3 5.6
2017-Aug-13 06:00N 29°42' W 095°01'4 7.1
2017-Aug-13 05:30N 29°39' W 094°58'4 7.8
2017-Aug-13 05:00N 29°36' W 094°56'4 8.0
2017-Aug-13 04:30N 29°32' W 094°54'4 7.6
2017-Aug-13 03:58N 29°29' W 094°51'  
Track history (hours):
 
Tides and Currents Weather Stations Pressure Air Temp Water Temp Dewpoint Dewpoint Depression Visibility Wind Speed Wind Dir Waves Ship Positions

Lavaca Bay

Owner: Higman Barge Lines, Inc, Orange, TX. More information available from US FCC via Universal Licensing System and Coast Guard Vessel Documentation Center.

Last reported at 2017-Aug-16 23:00 UTC. Time now 2017-Aug-16 23:22 UTC.
Position N 29°57' W 093°10'.

Length 24 m; draft 3 m.

Type: Towing. MMSI: 367424940.

Date/timePositionNaut miles runAvg speedWind from/ knotsBaromVisibWave heightAir tempDewpointWater temp
2017-Aug-16 23:00N 29°57' W 093°10'3 5.3
2017-Aug-16 22:30N 29°59' W 093°12'2 4.7
2017-Aug-16 22:00N 30°01' W 093°14'2 4.5
2017-Aug-16 21:30N 30°02' W 093°15'2 3.5
2017-Aug-16 21:00N 30°04' W 093°16'2 3.7
2017-Aug-16 20:30N 30°05' W 093°18'1 2.5
2017-Aug-16 20:00N 30°06' W 093°19'3 5.4
2017-Aug-16 19:30N 30°04' W 093°21'2 4.6
2017-Aug-16 19:00N 30°04' W 093°23'3 5.5
2017-Aug-16 18:30N 30°04' W 093°27'3 5.5
2017-Aug-16 18:00N 30°04' W 093°30'3 5.5
2017-Aug-16 17:30N 30°04' W 093°33'3 5.6
2017-Aug-16 17:00N 30°04' W 093°36'3 5.9
2017-Aug-16 16:30N 30°04' W 093°40'71 4.9
2017-Aug-16 02:01N 29°29' W 094°52'1 7.7
2017-Aug-16 01:53N 29°30' W 094°52'3 7.6
2017-Aug-16 01:30N 29°32' W 094°54'4 7.4
2017-Aug-16 01:00N 29°35' W 094°56'4 7.6
2017-Aug-16 00:30N 29°38' W 094°58'4 7.6
2017-Aug-16 00:00N 29°42' W 094°60'3 6.0
2017-Aug-15 23:29N 29°44' W 095°03'3 5.5
2017-Aug-15 22:58N 29°46' W 095°05'1 0.0
2017-Aug-15 10:18N 29°45' W 095°06'1 3.2
2017-Aug-15 10:00N 29°45' W 095°06'3 5.2
2017-Aug-15 09:26N 29°45' W 095°10'3 4.3
2017-Aug-15 08:40N 29°44' W 095°13'1 0.1
2017-Aug-14 08:52N 29°43' W 095°15'3 4.6
2017-Aug-14 08:14N 29°45' W 095°12'1 5.9
2017-Aug-14 08:00N 29°45' W 095°10'3 0.1
2017-Aug-13 07:47N 29°46' W 095°06'0 0.6
2017-Aug-13 07:18N 29°46' W 095°07'1 3.0
2017-Aug-13 06:59N 29°46' W 095°06'3 5.6
2017-Aug-13 06:30N 29°44' W 095°03'3 5.6
2017-Aug-13 06:00N 29°42' W 095°01'4 7.1
2017-Aug-13 05:30N 29°39' W 094°58'4 7.8
2017-Aug-13 05:00N 29°36' W 094°56'4 8.0
2017-Aug-13 04:30N 29°32' W 094°54'4 7.6
2017-Aug-13 03:58N 29°29' W 094°51'  

Dump ship's entire track history